createdAt,value
2022-08-22T00:01:20.318Z,20.22
2022-08-22T00:02:53.828Z,22.52
2022-08-22T00:03:01.919Z,22.58
2022-08-22T00:03:04.491Z,23.81
2022-08-22T00:04:33.400Z,20.25
2022-08-22T00:07:13.168Z,20.19
2022-08-22T00:09:57.346Z,20.24
2022-08-22T00:12:41.773Z,20.17
2022-08-22T00:15:42.581Z,20.17
2022-08-22T00:18:25.181Z,20.13
2022-08-22T00:21:10.122Z,20.12
2022-08-22T00:23:53.968Z,20.10
2022-08-22T00:26:54.403Z,20.14
2022-08-22T00:29:30.395Z,20.05
2022-08-22T00:32:23.906Z,20.09
2022-08-22T00:35:22.616Z,20.16
2022-08-22T00:38:14.257Z,20.01
2022-08-22T00:40:49.930Z,20.01
2022-08-22T00:43:31.542Z,19.95
2022-08-22T00:46:19.315Z,20.22
2022-08-22T00:48:54.883Z,19.96
2022-08-22T00:51:49.764Z,19.82
2022-08-22T00:54:34.461Z,19.91
2022-08-22T00:57:19.558Z,19.84
2022-08-22T01:00:13.170Z,19.85
2022-08-22T01:03:17.039Z,19.83
2022-08-22T01:06:31.684Z,19.83
2022-08-22T01:09:05.052Z,19.76
2022-08-22T01:11:50.217Z,19.81
2022-08-22T01:14:52.548Z,19.77
2022-08-22T01:17:53.331Z,19.78
2022-08-22T01:20:37.604Z,19.68
2022-08-22T01:23:25.305Z,19.67
2022-08-22T01:26:30.738Z,19.68
2022-08-22T01:29:15.965Z,19.67
2022-08-22T01:32:19.773Z,19.67
2022-08-22T01:35:24.711Z,19.64
2022-08-22T01:38:31.299Z,19.62
2022-08-22T01:41:45.646Z,19.61
2022-08-22T01:44:59.813Z,19.65
2022-08-22T01:47:48.119Z,19.54
2022-08-22T01:50:36.619Z,19.43
2022-08-22T01:53:20.181Z,19.50
2022-08-22T01:56:11.406Z,19.52
2022-08-22T01:58:45.180Z,19.44
2022-08-22T02:01:46.788Z,19.49
2022-08-22T02:04:43.399Z,19.42
2022-08-22T02:07:40.118Z,19.46
2022-08-22T02:10:40.162Z,19.48
2022-08-22T02:13:12.916Z,19.37
2022-08-22T02:15:39.688Z,19.37
2022-08-22T02:18:06.183Z,19.34
2022-08-22T02:20:39.263Z,19.43
2022-08-22T02:23:19.519Z,19.37
2022-08-22T02:25:50.961Z,19.34
2022-08-22T02:28:37.912Z,19.38
2022-08-22T02:31:37.274Z,19.38
2022-08-22T02:34:16.905Z,19.32
2022-08-22T02:36:53.750Z,19.30
2022-08-22T02:39:37.423Z,19.28
2022-08-22T02:42:18.870Z,19.28
2022-08-22T02:45:16.221Z,19.27
2022-08-22T02:48:00.666Z,19.15
2022-08-22T02:50:46.529Z,19.19
2022-08-22T02:53:44.408Z,19.21
2022-08-22T02:56:33.245Z,19.09
2022-08-22T02:59:23.193Z,19.15
2022-08-22T03:01:51.166Z,19.13
2022-08-22T03:04:32.677Z,19.12
2022-08-22T03:07:27.608Z,19.17
2022-08-22T03:10:37.966Z,19.18
2022-08-22T03:13:33.522Z,19.08
2022-08-22T03:16:08.367Z,19.00
2022-08-22T03:18:49.719Z,19.00
2022-08-22T03:21:37.391Z,19.01
2022-08-22T03:24:29.080Z,18.99
2022-08-22T03:27:09.510Z,18.90
2022-08-22T03:29:40.450Z,18.90
2022-08-22T03:32:11.767Z,18.81
2022-08-22T03:34:54.472Z,18.83
2022-08-22T03:37:35.853Z,18.80
2022-08-22T03:40:20.130Z,18.72
2022-08-22T03:42:55.927Z,18.73
2022-08-22T03:45:41.099Z,18.74
2022-08-22T03:48:38.744Z,18.78
2022-08-22T03:51:22.256Z,18.74
2022-08-22T03:54:07.437Z,18.74
2022-08-22T03:56:58.901Z,18.67
2022-08-22T04:00:20.854Z,18.71
2022-08-22T04:03:11.843Z,18.59
2022-08-22T04:05:58.098Z,18.50
2022-08-22T04:08:44.804Z,18.50
2022-08-22T04:11:31.607Z,18.34
2022-08-22T04:14:24.207Z,18.41
2022-08-22T04:17:24.620Z,18.34
2022-08-22T04:20:05.322Z,18.25
2022-08-22T04:22:52.579Z,18.23
2022-08-22T04:25:27.804Z,18.17
2022-08-22T04:28:12.944Z,18.16
2022-08-22T04:30:50.420Z,18.06
2022-08-22T04:33:30.335Z,18.06
2022-08-22T04:36:05.318Z,18.08
2022-08-22T04:38:48.684Z,18.12
2022-08-22T04:41:48.960Z,18.19
2022-08-22T04:44:33.765Z,18.12
2022-08-22T04:47:08.233Z,18.11
2022-08-22T04:49:41.707Z,18.16
2022-08-22T04:52:08.136Z,18.13
2022-08-22T04:54:48.430Z,18.16
2022-08-22T04:57:19.445Z,18.21
2022-08-22T04:59:46.175Z,18.22
2022-08-22T05:02:22.212Z,18.20
2022-08-22T05:05:13.611Z,18.23
2022-08-22T05:07:52.065Z,18.28
2022-08-22T05:10:23.229Z,18.24
2022-08-22T05:12:55.455Z,18.26
2022-08-22T05:15:27.617Z,18.26
2022-08-22T05:17:58.010Z,18.25
2022-08-22T05:20:27.567Z,18.23
2022-08-22T05:23:05.875Z,18.20
2022-08-22T05:25:38.396Z,18.28
2022-08-22T05:28:15.714Z,18.27
2022-08-22T05:30:45.849Z,18.27
2022-08-22T05:33:22.818Z,18.25
2022-08-22T05:35:59.089Z,18.25
2022-08-22T05:38:31.494Z,18.23
2022-08-22T05:41:16.960Z,18.27
2022-08-22T05:43:45.159Z,18.24
2022-08-22T05:46:24.614Z,18.25
2022-08-22T05:49:00.092Z,18.23
2022-08-22T05:51:35.551Z,18.28
2022-08-22T05:54:34.493Z,18.32
2022-08-22T05:57:23.743Z,18.27
2022-08-22T05:59:57.716Z,18.25
2022-08-22T06:02:44.817Z,18.27
2022-08-22T06:05:12.396Z,18.19
2022-08-22T06:07:46.368Z,18.26
2022-08-22T06:10:31.141Z,18.29
2022-08-22T06:13:06.670Z,18.23
2022-08-22T06:15:53.464Z,18.24
2022-08-22T06:18:24.568Z,18.28
2022-08-22T06:20:55.936Z,18.28
2022-08-22T06:23:30.102Z,18.31
2022-08-22T06:26:00.060Z,18.29
2022-08-22T06:28:32.707Z,18.26
2022-08-22T06:31:02.175Z,18.28
2022-08-22T06:33:32.827Z,18.27
2022-08-22T06:36:25.676Z,18.36
2022-08-22T06:39:21.086Z,18.43
2022-08-22T06:41:52.623Z,18.30
2022-08-22T06:44:23.287Z,18.57
2022-08-22T06:46:55.373Z,18.42
2022-08-22T06:49:24.665Z,18.40
2022-08-22T06:51:51.863Z,18.37
2022-08-22T06:54:23.884Z,18.43
2022-08-22T06:56:53.126Z,18.48
2022-08-22T06:59:25.881Z,18.43
2022-08-22T07:02:05.046Z,18.45
2022-08-22T07:04:31.872Z,18.43
2022-08-22T07:07:01.236Z,18.40
2022-08-22T07:09:35.481Z,18.45
2022-08-22T07:12:10.958Z,18.46
2022-08-22T07:14:43.589Z,18.44
2022-08-22T07:17:18.683Z,18.49
2022-08-22T07:19:53.951Z,18.50
2022-08-22T07:22:28.239Z,18.52
2022-08-22T07:25:00.671Z,18.53
2022-08-22T07:28:00.349Z,18.56
2022-08-22T07:30:55.057Z,18.66
2022-08-22T07:33:40.779Z,18.64
2022-08-22T07:36:46.785Z,18.64
2022-08-22T07:39:19.390Z,18.73
2022-08-22T07:42:11.269Z,18.69
2022-08-22T07:45:01.555Z,18.77
2022-08-22T07:47:50.181Z,18.77
2022-08-22T07:50:23.261Z,18.83
2022-08-22T07:52:51.837Z,18.87
2022-08-22T07:55:26.191Z,18.87
2022-08-22T07:57:59.093Z,18.93
2022-08-22T08:00:28.914Z,18.95
2022-08-22T08:03:02.648Z,19.00
2022-08-22T08:05:32.749Z,18.98
2022-08-22T08:08:07.724Z,19.00
2022-08-22T08:10:39.567Z,18.98
2022-08-22T08:13:12.930Z,19.00
2022-08-22T08:15:42.976Z,19.07
2022-08-22T08:18:19.107Z,19.05
2022-08-22T08:20:54.547Z,19.14
2022-08-22T08:23:23.381Z,19.23
2022-08-22T08:26:06.956Z,19.34
2022-08-22T08:28:41.281Z,19.49
2022-08-22T08:31:17.861Z,19.52
2022-08-22T08:33:47.391Z,19.54
2022-08-22T08:36:29.126Z,19.62
2022-08-22T08:38:58.618Z,19.68
2022-08-22T08:41:37.329Z,19.82
2022-08-22T08:44:30.575Z,19.84
2022-08-22T08:47:35.710Z,20.01
2022-08-22T08:50:29.236Z,20.10
2022-08-22T08:53:26.560Z,20.19
2022-08-22T08:56:47.304Z,20.25
2022-08-22T08:59:40.407Z,20.33
2022-08-22T09:02:23.508Z,20.52
2022-08-22T09:05:08.588Z,20.55
2022-08-22T09:08:13.596Z,20.59
2022-08-22T09:10:58.624Z,20.56
2022-08-22T09:13:50.290Z,20.66
2022-08-22T09:16:25.663Z,20.73
2022-08-22T09:19:19.751Z,20.68
2022-08-22T09:22:07.387Z,20.81
2022-08-22T09:24:59.457Z,20.91
2022-08-22T09:27:26.261Z,20.88
2022-08-22T09:30:14.203Z,20.89
2022-08-22T09:32:59.420Z,20.88
2022-08-22T09:35:46.948Z,20.92
2022-08-22T09:38:48.269Z,21.03
2022-08-22T09:41:35.420Z,21.06
2022-08-22T09:44:19.696Z,21.17
2022-08-22T09:46:54.968Z,21.01
2022-08-22T09:49:48.237Z,21.13
2022-08-22T09:52:34.205Z,21.15
2022-08-22T09:55:35.442Z,21.17
2022-08-22T09:58:18.077Z,21.15
2022-08-22T10:00:55.584Z,21.30
2022-08-22T10:03:33.046Z,21.42
2022-08-22T10:06:13.227Z,21.40
2022-08-22T10:08:53.693Z,21.53
2022-08-22T10:11:32.135Z,21.64
2022-08-22T10:14:08.091Z,21.66
2022-08-22T10:16:43.057Z,21.75
2022-08-22T10:19:32.300Z,21.82
2022-08-22T10:22:08.433Z,21.90
2022-08-22T10:24:43.698Z,22.01
2022-08-22T10:27:19.715Z,21.95
2022-08-22T10:30:08.039Z,22.09
2022-08-22T10:32:59.128Z,22.05
2022-08-22T10:35:51.464Z,22.17
2022-08-22T10:38:27.838Z,22.34
2022-08-22T10:41:19.651Z,22.25
2022-08-22T10:44:04.057Z,22.32
2022-08-22T10:46:38.943Z,22.48
2022-08-22T10:49:19.616Z,22.42
2022-08-22T10:51:56.754Z,22.49
2022-08-22T10:54:51.155Z,22.59
2022-08-22T10:57:52.992Z,22.77
2022-08-22T11:00:58.252Z,22.86
2022-08-22T11:03:45.512Z,22.95
2022-08-22T11:06:33.448Z,23.05
2022-08-22T11:09:19.813Z,23.24
2022-08-22T11:12:12.590Z,23.23
2022-08-22T11:14:59.558Z,23.21
2022-08-22T11:17:31.017Z,23.23
2022-08-22T11:20:21.519Z,23.31
2022-08-22T11:23:05.445Z,23.30
2022-08-22T11:25:56.745Z,23.35
2022-08-22T11:28:50.900Z,23.39
2022-08-22T11:31:55.429Z,23.39
2022-08-22T11:34:37.077Z,23.39
2022-08-22T11:37:11.775Z,23.40
2022-08-22T11:40:18.924Z,23.42
2022-08-22T11:43:07.538Z,23.39
2022-08-22T11:45:49.306Z,23.39
2022-08-22T11:48:21.921Z,23.43
2022-08-22T11:51:24.847Z,23.42
2022-08-22T11:54:19.692Z,23.44
2022-08-22T11:57:03.050Z,23.51
2022-08-22T11:59:55.522Z,23.56
2022-08-22T12:03:00.055Z,23.57
2022-08-22T12:05:34.350Z,23.55
2022-08-22T12:08:11.326Z,23.68
2022-08-22T12:10:48.839Z,23.62
2022-08-22T12:13:35.049Z,23.68
2022-08-22T12:16:02.009Z,23.70
2022-08-22T12:18:52.914Z,23.71
2022-08-22T12:21:24.369Z,23.68
2022-08-22T12:24:11.177Z,23.75
2022-08-22T12:27:07.828Z,23.75
2022-08-22T12:30:03.349Z,23.77
2022-08-22T12:32:49.050Z,23.80
2022-08-22T12:35:45.953Z,23.82
2022-08-22T12:38:46.929Z,23.79
2022-08-22T12:41:46.649Z,23.85
2022-08-22T12:44:24.688Z,23.89
2022-08-22T12:47:14.150Z,23.89
2022-08-22T12:49:54.024Z,23.92
2022-08-22T12:52:55.918Z,23.95
2022-08-22T12:55:33.658Z,23.95
2022-08-22T12:58:11.636Z,24.01
2022-08-22T13:00:45.093Z,24.03
2022-08-22T13:03:35.281Z,24.02
2022-08-22T13:06:26.884Z,24.04
2022-08-22T13:08:54.254Z,24.07
2022-08-22T13:11:23.588Z,24.09
2022-08-22T13:14:00.341Z,24.13
2022-08-22T13:16:49.038Z,24.19
2022-08-22T13:19:26.995Z,24.37
2022-08-22T13:22:02.394Z,24.44
2022-08-22T13:24:55.060Z,24.51
2022-08-22T13:27:29.812Z,24.52
2022-08-22T13:30:05.687Z,24.60
2022-08-22T13:32:45.378Z,24.67
2022-08-22T13:35:30.201Z,24.80
2022-08-22T13:38:05.564Z,24.82
2022-08-22T13:40:33.961Z,24.89
2022-08-22T13:43:11.288Z,25.09
2022-08-22T13:45:41.856Z,25.16
2022-08-22T13:48:12.611Z,25.18
2022-08-22T13:51:04.620Z,25.35
2022-08-22T13:53:50.065Z,25.27
2022-08-22T13:56:44.137Z,25.32
2022-08-22T13:59:50.184Z,25.31
2022-08-22T14:02:37.299Z,25.38
2022-08-22T14:05:12.223Z,25.38
2022-08-22T14:08:12.469Z,25.43
2022-08-22T14:10:45.765Z,25.63
2022-08-22T14:13:29.623Z,25.72
2022-08-22T14:16:06.406Z,25.83
2022-08-22T14:18:46.126Z,25.81
2022-08-22T14:21:33.569Z,25.95
2022-08-22T14:24:25.893Z,26.02
2022-08-22T14:26:57.918Z,26.13
2022-08-22T14:29:28.323Z,26.07
2022-08-22T14:32:31.001Z,26.10
2022-08-22T14:35:25.455Z,26.23
2022-08-22T14:38:32.622Z,26.35
2022-08-22T14:41:05.463Z,26.24
2022-08-22T14:43:31.996Z,26.33
2022-08-22T14:46:07.408Z,26.34
2022-08-22T14:48:42.905Z,26.18
2022-08-22T14:51:21.221Z,26.20
2022-08-22T14:53:48.246Z,26.19
2022-08-22T14:56:27.999Z,26.11
2022-08-22T14:59:02.232Z,26.02
2022-08-22T15:01:32.892Z,26.07
2022-08-22T15:04:09.538Z,26.13
2022-08-22T15:06:47.692Z,26.09
2022-08-22T15:09:37.729Z,26.10
2022-08-22T15:12:30.588Z,26.10
2022-08-22T15:15:01.241Z,26.05
2022-08-22T15:17:32.188Z,26.14
2022-08-22T15:20:11.782Z,26.36
2022-08-22T15:22:40.851Z,26.35
2022-08-22T15:25:17.255Z,26.29
2022-08-22T15:28:14.225Z,26.25
2022-08-22T15:31:06.784Z,26.24
2022-08-22T15:33:39.892Z,26.33
2022-08-22T15:36:21.346Z,26.27
2022-08-22T15:38:52.094Z,26.27
2022-08-22T15:41:21.579Z,26.28
2022-08-22T15:43:52.279Z,26.29
2022-08-22T15:46:21.718Z,26.31
2022-08-22T15:49:11.751Z,26.62
2022-08-22T15:51:50.348Z,27.02
2022-08-22T15:54:41.573Z,27.22
2022-08-22T15:57:31.460Z,27.33
2022-08-22T16:00:01.919Z,27.63
2022-08-22T16:02:41.678Z,27.82
2022-08-22T16:05:11.254Z,27.98
2022-08-22T16:07:40.003Z,28.03
2022-08-22T16:10:12.960Z,27.88
2022-08-22T16:12:45.856Z,28.25
2022-08-22T16:15:54.163Z,28.35
2022-08-22T16:18:48.891Z,28.33
2022-08-22T16:21:16.464Z,28.22
2022-08-22T16:23:56.606Z,28.40
2022-08-22T16:26:30.589Z,28.39
2022-08-22T16:29:03.124Z,28.41
2022-08-22T16:31:34.780Z,28.57
2022-08-22T16:34:26.493Z,28.69
2022-08-22T16:37:14.916Z,28.63
2022-08-22T16:39:48.322Z,28.65
2022-08-22T16:42:23.897Z,28.61
2022-08-22T16:45:02.615Z,28.65
2022-08-22T16:47:37.377Z,28.69
2022-08-22T16:50:16.161Z,28.62
2022-08-22T16:53:07.719Z,28.62
2022-08-22T16:55:35.927Z,28.59
2022-08-22T16:58:56.861Z,28.63
2022-08-22T17:01:56.565Z,28.71
2022-08-22T17:04:55.511Z,28.73
2022-08-22T17:07:51.530Z,28.55
2022-08-22T17:10:27.966Z,28.58
2022-08-22T17:13:33.046Z,28.64
2022-08-22T17:16:13.236Z,28.54
2022-08-22T17:18:40.127Z,28.62
2022-08-22T17:21:17.670Z,28.60
2022-08-22T17:23:59.206Z,28.60
2022-08-22T17:27:02.959Z,28.66
2022-08-22T17:29:47.556Z,28.60
2022-08-22T17:32:32.318Z,28.48
2022-08-22T17:35:12.476Z,28.48
2022-08-22T17:37:57.287Z,28.42
2022-08-22T17:41:00.923Z,28.39
2022-08-22T17:43:48.530Z,28.26
2022-08-22T17:46:48.234Z,28.35
2022-08-22T17:49:45.352Z,28.35
2022-08-22T17:52:22.286Z,28.18
2022-08-22T17:54:58.944Z,28.06
2022-08-22T17:57:34.105Z,28.03
2022-08-22T18:00:11.216Z,27.90
2022-08-22T18:02:44.481Z,27.97
2022-08-22T18:05:20.337Z,27.94
2022-08-22T18:08:01.291Z,27.73
2022-08-22T18:10:31.392Z,27.66
2022-08-22T18:13:10.164Z,27.52
2022-08-22T18:16:01.072Z,27.56
2022-08-22T18:18:37.692Z,27.34
2022-08-22T18:21:04.240Z,27.32
2022-08-22T18:23:40.713Z,27.16
2022-08-22T18:26:38.861Z,27.25
2022-08-22T18:29:16.831Z,26.95
2022-08-22T18:31:51.561Z,26.94
2022-08-22T18:34:26.024Z,26.89
2022-08-22T18:37:03.983Z,26.82
2022-08-22T18:39:45.448Z,26.72
2022-08-22T18:42:47.694Z,26.79
2022-08-22T18:45:43.892Z,26.47
2022-08-22T18:48:21.322Z,26.54
2022-08-22T18:50:49.242Z,26.45
2022-08-22T18:53:39.075Z,26.46
2022-08-22T18:56:13.326Z,26.29
2022-08-22T18:58:45.836Z,26.18
2022-08-22T19:01:50.717Z,26.25
2022-08-22T19:04:44.215Z,26.17
2022-08-22T19:07:36.925Z,26.12
2022-08-22T19:10:29.408Z,26.15
2022-08-22T19:13:01.680Z,26.11
2022-08-22T19:15:46.798Z,26.08
2022-08-22T19:18:30.802Z,26.11
2022-08-22T19:21:37.688Z,26.09
2022-08-22T19:24:08.325Z,25.96
2022-08-22T19:26:44.875Z,25.84
2022-08-22T19:29:15.926Z,25.96
2022-08-22T19:31:56.191Z,26.01
2022-08-22T19:34:29.249Z,26.04
2022-08-22T19:37:33.106Z,26.06
2022-08-22T19:40:11.983Z,25.98
2022-08-22T19:42:41.334Z,25.95
2022-08-22T19:45:20.153Z,25.99
2022-08-22T19:47:55.664Z,26.05
2022-08-22T19:50:22.311Z,25.99
2022-08-22T19:52:57.897Z,25.88
2022-08-22T19:55:27.651Z,25.94
2022-08-22T19:58:12.777Z,26.04
2022-08-22T20:00:55.035Z,25.90
2022-08-22T20:03:53.103Z,25.88
2022-08-22T20:06:47.806Z,25.88
2022-08-22T20:09:33.787Z,25.92
2022-08-22T20:12:19.707Z,25.93
2022-08-22T20:14:47.499Z,25.90
2022-08-22T20:17:33.909Z,25.80
2022-08-22T20:20:18.555Z,25.75
2022-08-22T20:22:52.714Z,25.79
2022-08-22T20:25:42.930Z,25.73
2022-08-22T20:28:45.728Z,25.77
2022-08-22T20:31:20.779Z,25.67
2022-08-22T20:33:53.579Z,25.59
2022-08-22T20:36:27.641Z,25.50
2022-08-22T20:39:01.728Z,25.59
2022-08-22T20:41:36.864Z,25.55
2022-08-22T20:44:19.310Z,25.63
2022-08-22T20:46:55.348Z,25.58
2022-08-22T20:49:31.532Z,25.50
2022-08-22T20:52:01.557Z,25.50
2022-08-22T20:54:32.415Z,25.44
2022-08-22T20:57:01.292Z,25.42
2022-08-22T20:59:30.041Z,25.43
2022-08-22T21:02:04.071Z,25.39
2022-08-22T21:04:42.700Z,25.43
2022-08-22T21:07:09.512Z,25.39
2022-08-22T21:09:54.758Z,25.30
2022-08-22T21:12:22.301Z,25.29
2022-08-22T21:14:48.814Z,25.27
2022-08-22T21:17:21.684Z,25.13
2022-08-22T21:19:48.547Z,25.11
2022-08-22T21:22:18.900Z,25.05
2022-08-22T21:24:45.650Z,25.00
2022-08-22T21:27:28.819Z,24.96
2022-08-22T21:29:56.406Z,24.84
2022-08-22T21:32:32.790Z,24.80
2022-08-22T21:34:59.847Z,24.71
2022-08-22T21:37:45.776Z,24.68
2022-08-22T21:40:23.814Z,24.63
2022-08-22T21:43:12.026Z,24.63
2022-08-22T21:45:38.472Z,24.40
2022-08-22T21:48:38.501Z,24.48
2022-08-22T21:51:22.370Z,24.45
2022-08-22T21:53:48.983Z,24.29
2022-08-22T21:56:30.121Z,24.67
2022-08-22T21:59:50.660Z,24.34
2022-08-22T22:02:36.422Z,24.25
2022-08-22T22:05:11.319Z,24.08
2022-08-22T22:07:40.750Z,24.01
2022-08-22T22:10:09.259Z,23.98
2022-08-22T22:12:39.197Z,23.88
2022-08-22T22:15:06.165Z,23.86
2022-08-22T22:17:32.662Z,23.76
2022-08-22T22:19:59.160Z,23.76
2022-08-22T22:22:25.663Z,23.68
2022-08-22T22:24:52.167Z,23.62
2022-08-22T22:27:18.748Z,23.63
2022-08-22T22:29:45.517Z,23.59
2022-08-22T22:32:12.005Z,23.57
2022-08-22T22:34:39.108Z,23.55
2022-08-22T22:37:08.147Z,23.51
2022-08-22T22:39:36.049Z,23.52
2022-08-22T22:42:03.548Z,23.47
2022-08-22T22:44:30.669Z,23.45
2022-08-22T22:46:58.807Z,23.37
2022-08-22T22:49:25.300Z,23.30
2022-08-22T22:51:51.930Z,23.34
2022-08-22T22:54:18.501Z,23.20
2022-08-22T22:56:48.005Z,23.22
2022-08-22T22:59:14.934Z,23.13
2022-08-22T23:02:01.264Z,23.23
2022-08-22T23:04:29.000Z,23.11
2022-08-22T23:06:55.756Z,23.09
2022-08-22T23:09:23.860Z,23.09
2022-08-22T23:12:06.465Z,22.99
2022-08-22T23:14:33.877Z,23.03
2022-08-22T23:17:01.316Z,22.99
2022-08-22T23:19:28.811Z,22.99
2022-08-22T23:21:57.592Z,22.97
2022-08-22T23:24:25.626Z,22.94
2022-08-22T23:26:52.458Z,22.90
2022-08-22T23:29:19.171Z,22.82
2022-08-22T23:31:55.081Z,22.83
2022-08-22T23:34:24.824Z,22.80
2022-08-22T23:36:53.655Z,22.76
2022-08-22T23:39:22.607Z,22.69
2022-08-22T23:41:49.708Z,22.65
2022-08-22T23:44:20.023Z,22.62
2022-08-22T23:46:46.968Z,22.57
2022-08-22T23:49:14.293Z,22.52
2022-08-22T23:51:41.888Z,22.47
2022-08-22T23:54:08.600Z,22.44
2022-08-22T23:56:40.541Z,22.39
2022-08-22T23:59:11.491Z,22.36
